Nearby METAR Reports

 

KIAD - Wash Dc/Dulles, Virginia, USA
Distance from station: NNW 8mi, 13km
Updated: Fri, 19-Jan-2018 8:52pm EST
Clear
Clear
 Wind from calm
Wind: Calm
Temperature: 34°F , 1°C
Dew Point: 16°F , -9°C
Humidity: 48%
Barometer: 30.04 inHg , 1017.3 hPa
Clouds: Clear
Visibility: 10 miles , 16 km
2018/01/20 01:52 KIAD 200152Z 00000KT 10SM CLR 01/M09 A3004 RMK AO2 SLP175 T00061094
KHEF - Manassas Muni, Virginia, USA
Distance from station: SW 9mi, 14km
Updated: Fri, 19-Jan-2018 8:56pm EST
Clear
Clear
 Wind from calm
Wind: Calm
Temperature: 27°F , -3°C
Dew Point: 18°F , -8°C
Humidity: 69%
Barometer: 30.05 inHg , 1017.6 hPa
Clouds: Clear
Visibility: 10 miles , 16 km
2018/01/20 01:56 KHEF 200156Z 00000KT 10SM CLR M03/M08 A3005 RMK AO2 SLP186 T10331083 FZRANO PNO $
KDAA - Fort Belvoir/Dav, Virginia, USA
Distance from station: ESE 15mi, 25km
Updated: Fri, 19-Jan-2018 8:56pm EST
Clear
Clear
 Wind from calm
Wind: Calm
Temperature: 28°F , -2°C
Dew Point: 18°F , -8°C
Humidity: 64%
Barometer: 30.04 inHg , 1017.3 hPa
Clouds: Clear
Visibility: 10 miles , 16 km
2018/01/20 01:56 KDAA 200156Z AUTO 00000KT 10SM CLR M02/M08 A3004 RMK AO2 SLP177 T10191082 $
 
KJYO - Leesburg/Godfrey, Virginia, USA
Distance from station: NNW 19mi, 30km
Updated: Fri, 19-Jan-2018 9:35pm EST
Clear
Clear
 Wind from calm
Wind: Calm
Temperature: 32°F , 0°C
Dew Point: 21°F , -6°C
Humidity: 64%
Barometer: 30.04 inHg , 1017.3 hPa
Clouds: Clear
Visibility: 10 miles , 16 km
2018/01/20 02:35 KJYO 200235Z AUTO 00000KT 10SM CLR 00/M06 A3004 RMK AO2
KDCA - Washington/Natl, Washington D.c., USA
Distance from station: E 21mi, 34km
Updated: Fri, 19-Jan-2018 9:52pm EST
Clear
Clear
 Wind from WSW
Wind: WSW 3 mph , 6 km/h
Temperature: 36°F , 2°C
Dew Point: 18°F , -8°C
Humidity: 48%
Barometer: 30.05 inHg , 1017.6 hPa
Clouds: Clear
Visibility: 10 miles , 16 km
2018/01/20 02:52 KDCA 200252Z 24003KT 10SM CLR 02/M08 A3005 RMK AO2 SLP175 T00221078
KHWY - Warrenton, Virginia, USA
Distance from station: SW 23mi, 37km
Updated: Fri, 19-Jan-2018 9:35pm EST
Clear
Clear
 Wind from calm
Wind: Calm
Temperature: 25°F , -4°C
Dew Point: 14°F , -10°C
Humidity: 63%
Barometer: 30.04 inHg , 1017.3 hPa
Clouds: Clear
Visibility: 10 miles , 16 km
2018/01/20 02:35 KHWY 200235Z AUTO 00000KT 10SM CLR M04/M10 A3004 RMK AO2 T10371103
 
KNYG - Quantico Mcaf, Virginia, USA
Distance from station: SSE 23mi, 37km
Updated: Fri, 19-Jan-2018 1:56pm EST
NOT Current
Few Clouds
Few Clouds
 Wind from S
Wind: S 8 mph , 13 km/h
Barometer: 30.07 inHg , 1018.3 hPa
Clouds: Few Clouds
Visibility: 10 miles , 16 km
Cloud details: Few Clouds 25000 ft
2018/01/19 18:56 KNYG 191856Z 19007KT 10SM FEW250 A3007 07/M10 RMK A02 SLP184 T00671100
KGAI - Gaithersburg, Maryland, USA
Distance from station: NNE 28mi, 44km
Updated: Fri, 19-Jan-2018 8:56pm EST
Clear
Clear
 Wind from calm
Wind: Calm
Temperature: 30°F , -1°C
Dew Point: 19°F , -7°C
Humidity: 64%
Barometer: 30.04 inHg , 1017.3 hPa
Clouds: Clear
Visibility: 10 miles , 16 km
2018/01/20 01:56 KGAI 200156Z AUTO 00000KT 10SM CLR M01/M07 A3004 RMK AO2 SLP203 T10111072 FZRANO
KCGS - College Park, Maryland, USA
Distance from station: ENE 29mi, 47km
Updated: Fri, 19-Jan-2018 9:37pm EST
Clear
Clear
 Wind from calm
Wind: Calm
Temperature: 27°F , -3°C
Dew Point: 21°F , -6°C
Humidity: 80%
Barometer: 30.04 inHg , 1017.3 hPa
Clouds: Clear
Visibility: 10 miles , 16 km
2018/01/20 02:37 KCGS 200237Z AUTO 00000KT 10SM CLR M03/M06 A3004 RMK AO1 T10261060
 
KRMN - Stafford Regnl, Virginia, USA
Distance from station: S 29mi, 47km
Updated: Fri, 19-Jan-2018 9:35pm EST
Clear
Clear
 Wind from calm
Wind: Calm
Temperature: 37°F , 3°C
Dew Point: 10°F , -12°C
Humidity: 33%
Barometer: 30.09 inHg , 1019 hPa
Clouds: Clear
Visibility: 10 miles , 16 km
2018/01/20 02:35 KRMN 200235Z AUTO 00000KT 10SM CLR 03/M12 A3009 RMK AO2 T00321116
KADW - Andrews Afb, Maryland, USA
Distance from station: E 30mi, 48km
Updated: Fri, 19-Jan-2018 8:56pm EST
Clear
Clear
 Wind from S
Wind: S 7 mph , 11 km/h
Temperature: 37°F , 3°C
Wind Chill: 32°F , 0°C
Dew Point: 12°F , -11°C
Humidity: 35%
Barometer: 30.03 inHg , 1016.9 hPa
Clouds: Clear
Visibility: 10 miles , 16 km
2018/01/20 01:56 KADW 200156Z AUTO 19006KT 10SM CLR 03/M11 A3003 RMK AO2 SLP178 T00261110
KCJR - Culpeper, Virginia, USA
Distance from station: SW 31mi, 50km
Updated: Fri, 19-Jan-2018 9:35pm EST
Clear
Clear
 Wind from calm
Wind: Calm
Temperature: 27°F , -3°C
Dew Point: 14°F , -10°C
Humidity: 59%
Barometer: 30.05 inHg , 1017.6 hPa
Clouds: Clear
Visibility: 10 miles , 16 km
2018/01/20 02:35 KCJR 200235Z AUTO 00000KT 10SM CLR M03/M10 A3005 RMK AO2 T10261104
 
KEZF - Fredericksb/Shan, Virginia, USA
Distance from station: S 38mi, 61km
Updated: Fri, 19-Jan-2018 9:30pm EST
Clear
Clear
 Wind from SW
Wind: SW 3 mph , 6 km/h
Temperature: 39°F , 4°C
Dew Point: 14°F , -10°C
Humidity: 36%
Barometer: 30.05 inHg , 1017.6 hPa
Clouds: Clear
Visibility: 10 miles , 16 km
2018/01/20 02:30 KEZF 200230Z AUTO 23003KT 10SM CLR 04/M10 A3005 RMK AO2 T00391097
KFME - Fort Meade, Maryland, USA
Distance from station: ENE 40mi, 64km
Updated: Fri, 19-Jan-2018 9:36pm EST
Clear
Clear
 Wind from calm
Wind: Calm
Temperature: 27°F , -3°C
Dew Point: 21°F , -6°C
Humidity: 80%
Barometer: 30.06 inHg , 1017.9 hPa
Clouds: Clear
Visibility: 10 miles , 16 km
2018/01/20 02:36 KFME 200236Z AUTO 00000KT 10SM CLR M03/M06 A3006 RMK AO1
KFDK - Frederick, Maryland, USA
Distance from station: N 41mi, 67km
Updated: Fri, 19-Jan-2018 9:35pm EST
Clear
Clear
 Wind from ESE
Wind: ESE 3 mph , 6 km/h
Temperature: 30°F , -1°C
Dew Point: 19°F , -7°C
Humidity: 64%
Barometer: 30.06 inHg , 1017.9 hPa
Clouds: Clear
Visibility: 10 miles , 16 km
2018/01/20 02:35 KFDK 200235Z AUTO 12003KT 10SM CLR M01/M07 A3006 RMK AO2
 
KOKV - Winchester Rgnl, Virginia, USA
Distance from station: WNW 45mi, 72km
Updated: Fri, 19-Jan-2018 9:35pm EST
Clear
Clear
 Wind from SSE
Wind: SSE 3 mph , 6 km/h
Temperature: 28°F , -2°C
Dew Point: 19°F , -7°C
Humidity: 69%
Barometer: 30.04 inHg , 1017.3 hPa
Clouds: Clear
Visibility: 10 miles , 16 km
2018/01/20 02:35 KOKV 200235Z AUTO 15003KT 10SM CLR M02/M07 A3004 RMK AO2
KFRR - Front Royal, Virginia, USA
Distance from station: W 45mi, 73km
Updated: Fri, 19-Jan-2018 9:35pm EST
Clear
Clear
 Wind from E
Wind: E 5 mph , 7 km/h
Temperature: 34°F , 1°C
Wind Chill: 29°F , -2°C
Dew Point: 14°F , -10°C
Humidity: 44%
Barometer: 30.03 inHg , 1016.9 hPa
Clouds: Clear
Visibility: 10 miles , 16 km
2018/01/20 02:35 KFRR 200235Z AUTO 10004KT 10SM CLR 01/M10 A3003 RMK AO1
KBWI - Balto/Wash Intl, Maryland, USA
Distance from station: ENE 46mi, 75km
Updated: Fri, 19-Jan-2018 8:54pm EST
Clear
Clear
 Wind from calm
Wind: Calm
Temperature: 28°F , -2°C
Dew Point: 19°F , -7°C
Humidity: 69%
Barometer: 30.03 inHg , 1016.9 hPa
Clouds: Clear
Visibility: 10 miles , 16 km
2018/01/20 01:54 KBWI 200154Z 00000KT 10SM CLR M02/M07 A3003 RMK AO2 SLP172 T10171072
 
KMRB - Martinsburg, West Virginia, USA
Distance from station: NW 50mi, 81km
Updated: Fri, 19-Jan-2018 8:53pm EST
Clear
Clear
 Wind from W
Wind: W 14 mph , 22 km/h
Temperature: 43°F , 6°C
Wind Chill: 36°F , 2°C
Dew Point: 21°F , -6°C
Humidity: 42%
Barometer: 30.02 inHg , 1016.6 hPa
Clouds: Clear
Visibility: 10 miles , 16 km
2018/01/20 01:53 KMRB 200153Z AUTO 28012KT 10SM CLR 06/M06 A3002 RMK AO2 SLP170 T00611056
KNAK - Annapolis/Naval, Maryland, USA
Distance from station: ENE 52mi, 83km
Updated: Fri, 19-Jan-2018 8:54pm EST
Clear
Clear
 Wind from E
Wind: E 3 mph , 6 km/h
Temperature: 36°F , 2°C
Dew Point: 27°F , -3°C
Humidity: 70%
Barometer: 30.05 inHg , 1017.6 hPa
Clouds: Clear
Visibility: 10 miles , 16 km
2018/01/20 01:54 KNAK 200154Z AUTO 10003KT 10SM CLR 02/M03 A3005 RMK AO2 SLP176 T00171033
KOMH - Orange, Virginia, USA
Distance from station: SW 52mi, 84km
Updated: Fri, 19-Jan-2018 9:35pm EST
Clear
Clear
 Wind from calm
Wind: Calm
Temperature: 32°F , 0°C
Dew Point: 12°F , -11°C
Humidity: 44%
Barometer: 30.05 inHg , 1017.6 hPa
Clouds: Clear
Visibility: 10 miles , 16 km
2018/01/20 02:35 KOMH 200235Z AUTO 00000KT 10SM CLR 00/M11 A3005 RMK AO2